sensor_id;sensor_type;location;lat;lon;timestamp;pressure;altitude;pressure_sealevel;temperature;humidity
61506;BME280;47366;51.916;4.574;2023-07-29T08:29:42;100800.53;;;19.46;85.04
61506;BME280;47366;51.916;4.574;2023-07-29T08:32:07;100795.13;;;19.82;85.32
61506;BME280;47366;51.916;4.574;2023-07-29T08:34:33;100797.88;;;20.18;83.63
61506;BME280;47366;51.916;4.574;2023-07-29T08:36:58;100786.47;;;20.30;82.50
61506;BME280;47366;51.916;4.574;2023-07-29T08:39:25;100804.63;;;20.41;82.03
61506;BME280;47366;51.916;4.574;2023-07-29T08:42:01;100799.88;;;20.51;81.62
61506;BME280;47366;51.916;4.574;2023-07-29T08:44:33;100803.66;;;20.50;80.83
61506;BME280;47366;51.916;4.574;2023-07-29T08:47:00;100810.50;;;20.64;80.37
61506;BME280;47366;51.916;4.574;2023-07-29T08:49:26;100799.06;;;20.77;80.19
61506;BME280;47366;51.916;4.574;2023-07-29T08:51:54;100802.94;;;20.66;78.45
61506;BME280;47366;51.916;4.574;2023-07-29T08:54:20;100799.81;;;20.61;79.76
61506;BME280;47366;51.916;4.574;2023-07-29T08:56:45;100801.38;;;20.64;80.13
61506;BME280;47366;51.916;4.574;2023-07-29T08:59:13;100795.38;;;20.68;80.42
61506;BME280;47366;51.916;4.574;2023-07-29T09:01:38;100806.25;;;20.70;78.97
61506;BME280;47366;51.916;4.574;2023-07-29T09:04:04;100799.88;;;20.69;79.95
61506;BME280;47366;51.916;4.574;2023-07-29T09:06:31;100808.91;;;20.62;80.24
61506;BME280;47366;51.916;4.574;2023-07-29T09:08:58;100805.34;;;20.43;80.56
61506;BME280;47366;51.916;4.574;2023-07-29T09:11:24;100810.38;;;20.30;81.82
61506;BME280;47366;51.916;4.574;2023-07-29T09:13:50;100818.09;;;20.26;82.51
61506;BME280;47366;51.916;4.574;2023-07-29T09:16:15;100806.06;;;20.09;82.70
61506;BME280;47366;51.916;4.574;2023-07-29T09:18:41;100812.25;;;20.11;83.82
61506;BME280;47366;51.916;4.574;2023-07-29T09:21:06;100809.50;;;20.11;83.38
61506;BME280;47366;51.916;4.574;2023-07-29T09:23:41;100813.03;;;20.04;82.73
61506;BME280;47366;51.916;4.574;2023-07-29T09:26:07;100817.63;;;19.95;83.31
61506;BME280;47366;51.916;4.574;2023-07-29T09:28:37;100821.75;;;19.99;83.96
61506;BME280;47366;51.916;4.574;2023-07-29T09:31:04;100820.28;;;20.05;83.44
61506;BME280;47366;51.916;4.574;2023-07-29T09:33:32;100804.81;;;20.04;83.39
61506;BME280;47366;51.916;4.574;2023-07-29T09:36:00;100805.75;;;20.12;83.69
61506;BME280;47366;51.916;4.574;2023-07-29T09:38:27;100818.06;;;20.08;83.06
61506;BME280;47366;51.916;4.574;2023-07-29T09:40:55;100814.22;;;20.01;83.81
61506;BME280;47366;51.916;4.574;2023-07-29T09:43:25;100820.53;;;19.93;84.65
61506;BME280;47366;51.916;4.574;2023-07-29T09:45:51;100827.41;;;19.80;86.34
61506;BME280;47366;51.916;4.574;2023-07-29T09:48:22;100821.41;;;19.66;87.97
61506;BME280;47366;51.916;4.574;2023-07-29T09:50:48;100835.16;;;19.66;87.76
61506;BME280;47366;51.916;4.574;2023-07-29T09:53:14;100824.00;;;19.68;88.27
61506;BME280;47366;51.916;4.574;2023-07-29T09:55:39;100820.34;;;19.77;87.65
61506;BME280;47366;51.916;4.574;2023-07-29T09:58:11;100817.59;;;19.77;87.36
61506;BME280;47366;51.916;4.574;2023-07-29T10:00:36;100814.44;;;19.72;87.86
61506;BME280;47366;51.916;4.574;2023-07-29T10:03:04;100815.19;;;19.64;87.47
61506;BME280;47366;51.916;4.574;2023-07-29T10:05:29;100822.53;;;19.64;87.28
61506;BME280;47366;51.916;4.574;2023-07-29T10:07:56;100836.06;;;19.57;88.27
61506;BME280;47366;51.916;4.574;2023-07-29T10:10:22;100833.06;;;19.50;89.45
61506;BME280;47366;51.916;4.574;2023-07-29T10:12:47;100834.69;;;19.43;88.28
61506;BME280;47366;51.916;4.574;2023-07-29T10:15:13;100834.09;;;19.40;88.63
61506;BME280;47366;51.916;4.574;2023-07-29T10:17:41;100831.41;;;19.30;89.44
61506;BME280;47366;51.916;4.574;2023-07-29T10:20:08;100836.03;;;19.29;89.69
61506;BME280;47366;51.916;4.574;2023-07-29T10:22:42;100838.53;;;19.23;90.70
61506;BME280;47366;51.916;4.574;2023-07-29T10:25:21;100839.69;;;19.20;90.31
61506;BME280;47366;51.916;4.574;2023-07-29T10:27:52;100838.84;;;19.20;90.47
61506;BME280;47366;51.916;4.574;2023-07-29T10:30:18;100831.91;;;19.16;91.32
61506;BME280;47366;51.916;4.574;2023-07-29T10:32:45;100831.50;;;19.10;91.02
61506;BME280;47366;51.916;4.574;2023-07-29T10:35:14;100835.41;;;19.08;91.77
61506;BME280;47366;51.916;4.574;2023-07-29T10:37:40;100839.63;;;19.02;92.28
61506;BME280;47366;51.916;4.574;2023-07-29T10:40:08;100843.09;;;19.04;91.34
61506;BME280;47366;51.916;4.574;2023-07-29T10:42:33;100836.91;;;18.93;92.20
61506;BME280;47366;51.916;4.574;2023-07-29T10:45:00;100847.72;;;18.94;92.81
61506;BME280;47366;51.916;4.574;2023-07-29T10:47:28;100847.19;;;18.91;93.36
61506;BME280;47366;51.916;4.574;2023-07-29T10:49:59;100847.72;;;18.94;93.71
61506;BME280;47366;51.916;4.574;2023-07-29T10:54:59;100835.59;;;18.97;93.20
61506;BME280;47366;51.916;4.574;2023-07-29T10:59:56;100835.56;;;19.06;93.86
61506;BME280;47366;51.916;4.574;2023-07-29T11:02:29;100846.66;;;19.15;93.27
61506;BME280;47366;51.916;4.574;2023-07-29T11:04:55;100835.38;;;19.18;93.30
61506;BME280;47366;51.916;4.574;2023-07-29T11:07:22;100834.44;;;19.64;93.09
61506;BME280;47366;51.916;4.574;2023-07-29T11:09:58;100828.13;;;20.18;92.77
61506;BME280;47366;51.916;4.574;2023-07-29T11:17:39;100824.00;;;20.75;88.97
61506;BME280;47366;51.916;4.574;2023-07-29T11:20:05;100827.88;;;20.65;87.75
61506;BME280;47366;51.916;4.574;2023-07-29T11:22:32;100831.50;;;20.65;88.74
61506;BME280;47366;51.916;4.574;2023-07-29T11:24:58;100822.88;;;20.60;87.95
61506;BME280;47366;51.916;4.574;2023-07-29T11:27:23;100822.38;;;20.65;87.73
61506;BME280;47366;51.916;4.574;2023-07-29T11:29:49;100818.25;;;20.69;88.24
61506;BME280;47366;51.916;4.574;2023-07-29T11:32:15;100817.03;;;20.63;87.53
61506;BME280;47366;51.916;4.574;2023-07-29T11:34:41;100816.72;;;20.48;88.03
61506;BME280;47366;51.916;4.574;2023-07-29T11:37:09;100824.66;;;20.51;88.40
61506;BME280;47366;51.916;4.574;2023-07-29T11:39:42;100810.59;;;20.36;88.05
61506;BME280;47366;51.916;4.574;2023-07-29T11:42:11;100819.47;;;20.30;89.05
61506;BME280;47366;51.916;4.574;2023-07-29T11:44:37;100824.59;;;20.25;87.96
61506;BME280;47366;51.916;4.574;2023-07-29T11:47:09;100819.81;;;20.27;88.23
61506;BME280;47366;51.916;4.574;2023-07-29T11:49:35;100818.09;;;20.26;88.93
61506;BME280;47366;51.916;4.574;2023-07-29T11:52:06;100834.97;;;20.31;88.64
61506;BME280;47366;51.916;4.574;2023-07-29T11:54:32;100835.84;;;20.32;87.78
61506;BME280;47366;51.916;4.574;2023-07-29T11:56:57;100831.44;;;20.39;88.39
61506;BME280;47366;51.916;4.574;2023-07-29T11:59:23;100837.88;;;20.48;88.52
61506;BME280;47366;51.916;4.574;2023-07-29T12:01:48;100828.38;;;20.60;87.85
61506;BME280;47366;51.916;4.574;2023-07-29T12:04:14;100817.16;;;20.79;87.19
61506;BME280;47366;51.916;4.574;2023-07-29T12:06:40;100820.81;;;20.88;86.21
61506;BME280;47366;51.916;4.574;2023-07-29T12:09:06;100820.72;;;20.98;84.82
61506;BME280;47366;51.916;4.574;2023-07-29T12:11:33;100811.47;;;21.07;85.37
61506;BME280;47366;51.916;4.574;2023-07-29T12:13:59;100820.81;;;21.14;85.48
61506;BME280;47366;51.916;4.574;2023-07-29T12:16:25;100809.03;;;21.38;84.96
61506;BME280;47366;51.916;4.574;2023-07-29T12:18:50;100815.69;;;21.62;84.44
61506;BME280;47366;51.916;4.574;2023-07-29T12:21:17;100817.47;;;21.88;82.54
61506;BME280;47366;51.916;4.574;2023-07-29T12:23:43;100804.19;;;21.75;79.73
61506;BME280;47366;51.916;4.574;2023-07-29T12:26:09;100811.78;;;21.81;82.35
61506;BME280;47366;51.916;4.574;2023-07-29T12:28:34;100805.97;;;22.09;81.58
61506;BME280;47366;51.916;4.574;2023-07-29T12:31:00;100804.06;;;22.09;80.04
61506;BME280;47366;51.916;4.574;2023-07-29T12:33:37;100797.81;;;21.82;80.87
61506;BME280;47366;51.916;4.574;2023-07-29T12:36:04;100810.78;;;22.06;80.93
61506;BME280;47366;51.916;4.574;2023-07-29T12:38:30;100811.19;;;22.36;79.28
61506;BME280;47366;51.916;4.574;2023-07-29T12:40:56;100804.44;;;22.47;78.32
61506;BME280;47366;51.916;4.574;2023-07-29T12:43:22;100784.06;;;22.73;77.78
61506;BME280;47366;51.916;4.574;2023-07-29T12:45:50;100800.41;;;22.90;77.13
61506;BME280;47366;51.916;4.574;2023-07-29T12:48:15;100800.94;;;23.02;76.61
61506;BME280;47366;51.916;4.574;2023-07-29T12:50:41;100799.41;;;22.92;76.48
61506;BME280;47366;51.916;4.574;2023-07-29T12:53:07;100805.63;;;22.69;77.25
61506;BME280;47366;51.916;4.574;2023-07-29T12:55:33;100804.63;;;22.54;77.65
61506;BME280;47366;51.916;4.574;2023-07-29T12:57:58;100808.25;;;22.54;78.06
61506;BME280;47366;51.916;4.574;2023-07-29T13:00:24;100813.94;;;22.77;77.73
61506;BME280;47366;51.916;4.574;2023-07-29T13:02:49;100821.28;;;23.09;76.40
61506;BME280;47366;51.916;4.574;2023-07-29T13:05:15;100801.41;;;23.14;71.96
61506;BME280;47366;51.916;4.574;2023-07-29T13:07:41;100820.09;;;23.12;75.14
61506;BME280;47366;51.916;4.574;2023-07-29T13:10:08;100815.28;;;23.06;75.25
61506;BME280;47366;51.916;4.574;2023-07-29T13:12:33;100813.91;;;23.02;74.25
61506;BME280;47366;51.916;4.574;2023-07-29T13:14:59;100819.38;;;23.18;75.30
61506;BME280;47366;51.916;4.574;2023-07-29T13:17:24;100809.06;;;23.12;73.37
61506;BME280;47366;51.916;4.574;2023-07-29T13:19:50;100797.13;;;23.11;73.95
61506;BME280;47366;51.916;4.574;2023-07-29T13:22:15;100800.28;;;23.40;73.11
61506;BME280;47366;51.916;4.574;2023-07-29T13:24:40;100797.38;;;23.41;72.85
61506;BME280;47366;51.916;4.574;2023-07-29T13:27:06;100793.69;;;23.49;71.31
61506;BME280;47366;51.916;4.574;2023-07-29T13:29:31;100789.88;;;23.50;71.28
61506;BME280;47366;51.916;4.574;2023-07-29T13:31:57;100788.63;;;23.52;72.07
61506;BME280;47366;51.916;4.574;2023-07-29T13:34:22;100789.22;;;23.48;71.76
61506;BME280;47366;51.916;4.574;2023-07-29T13:36:48;100799.06;;;23.42;71.58
61506;BME280;47366;51.916;4.574;2023-07-29T13:39:13;100792.16;;;23.38;68.58
61506;BME280;47366;51.916;4.574;2023-07-29T13:41:38;100790.97;;;23.41;70.41
61506;BME280;47366;51.916;4.574;2023-07-29T13:44:04;100793.13;;;23.22;68.90
61506;BME280;47366;51.916;4.574;2023-07-29T13:46:29;100786.06;;;23.11;70.82
61506;BME280;47366;51.916;4.574;2023-07-29T13:48:55;100791.63;;;23.03;70.19
61506;BME280;47366;51.916;4.574;2023-07-29T13:51:20;100790.09;;;22.84;69.72
61506;BME280;47366;51.916;4.574;2023-07-29T13:53:45;100800.28;;;22.76;69.78
61506;BME280;47366;51.916;4.574;2023-07-29T13:56:11;100802.16;;;22.83;69.69
61506;BME280;47366;51.916;4.574;2023-07-29T13:58:36;100792.16;;;22.99;70.70
61506;BME280;47366;51.916;4.574;2023-07-29T14:01:02;100792.25;;;23.22;69.96
61506;BME280;47366;51.916;4.574;2023-07-29T14:03:27;100780.31;;;23.21;69.42
61506;BME280;47366;51.916;4.574;2023-07-29T14:05:52;100785.50;;;23.24;68.55
61506;BME280;47366;51.916;4.574;2023-07-29T14:08:18;100790.66;;;23.27;68.20
61506;BME280;47366;51.916;4.574;2023-07-29T14:10:43;100780.84;;;23.25;66.65
61506;BME280;47366;51.916;4.574;2023-07-29T14:13:08;100799.50;;;23.23;67.65
61506;BME280;47366;51.916;4.574;2023-07-29T14:15:34;100796.09;;;23.13;68.13
61506;BME280;47366;51.916;4.574;2023-07-29T14:17:59;100800.25;;;23.08;67.53
61506;BME280;47366;51.916;4.574;2023-07-29T14:20:25;100797.28;;;23.18;66.49
61506;BME280;47366;51.916;4.574;2023-07-29T14:22:51;100788.81;;;23.11;66.81
61506;BME280;47366;51.916;4.574;2023-07-29T14:25:16;100798.66;;;23.14;65.52
61506;BME280;47366;51.916;4.574;2023-07-29T14:27:41;100791.25;;;23.06;66.69
61506;BME280;47366;51.916;4.574;2023-07-29T14:30:07;100796.28;;;22.95;67.75
61506;BME280;47366;51.916;4.574;2023-07-29T14:32:33;100804.22;;;22.89;67.45
61506;BME280;47366;51.916;4.574;2023-07-29T14:34:58;100804.44;;;22.72;67.05
61506;BME280;47366;51.916;4.574;2023-07-29T14:37:28;100811.50;;;22.66;67.65
61506;BME280;47366;51.916;4.574;2023-07-29T14:39:54;100811.53;;;22.58;68.09
61506;BME280;47366;51.916;4.574;2023-07-29T14:42:19;100799.78;;;22.47;68.19
61506;BME280;47366;51.916;4.574;2023-07-29T14:44:44;100801.19;;;22.52;67.30
61506;BME280;47366;51.916;4.574;2023-07-29T14:47:10;100805.84;;;22.51;68.16
61506;BME280;47366;51.916;4.574;2023-07-29T14:49:35;100807.56;;;22.60;67.07
61506;BME280;47366;51.916;4.574;2023-07-29T14:52:00;100801.00;;;22.61;68.24
61506;BME280;47366;51.916;4.574;2023-07-29T14:54:26;100800.66;;;22.64;67.49
61506;BME280;47366;51.916;4.574;2023-07-29T14:56:51;100805.09;;;22.74;68.89
61506;BME280;47366;51.916;4.574;2023-07-29T14:59:16;100805.31;;;22.72;68.06
61506;BME280;47366;51.916;4.574;2023-07-29T15:01:42;100805.47;;;22.79;68.61
61506;BME280;47366;51.916;4.574;2023-07-29T15:04:07;100810.59;;;22.90;68.21
61506;BME280;47366;51.916;4.574;2023-07-29T15:06:32;100807.50;;;22.85;68.84
61506;BME280;47366;51.916;4.574;2023-07-29T15:08:58;100795.81;;;22.66;68.41
61506;BME280;47366;51.916;4.574;2023-07-29T15:11:23;100804.63;;;22.54;69.15
61506;BME280;47366;51.916;4.574;2023-07-29T15:13:49;100806.53;;;22.53;69.31
61506;BME280;47366;51.916;4.574;2023-07-29T15:16:14;100793.41;;;22.47;68.98
61506;BME280;47366;51.916;4.574;2023-07-29T15:18:39;100796.00;;;22.48;69.97
61506;BME280;47366;51.916;4.574;2023-07-29T15:21:05;100786.34;;;22.61;69.57
61506;BME280;47366;51.916;4.574;2023-07-29T15:23:30;100788.22;;;22.68;69.55
61506;BME280;47366;51.916;4.574;2023-07-29T15:25:56;100785.81;;;22.65;68.60
61506;BME280;47366;51.916;4.574;2023-07-29T15:28:21;100782.91;;;22.51;69.63
61506;BME280;47366;51.916;4.574;2023-07-29T15:30:47;100776.34;;;22.43;70.53
61506;BME280;47366;51.916;4.574;2023-07-29T15:33:12;100788.06;;;22.37;70.65
61506;BME280;47366;51.916;4.574;2023-07-29T15:35:39;100781.69;;;22.37;70.79
61506;BME280;47366;51.916;4.574;2023-07-29T15:38:05;100791.69;;;22.38;70.36
61506;BME280;47366;51.916;4.574;2023-07-29T15:40:31;100782.19;;;22.40;70.86
61506;BME280;47366;51.916;4.574;2023-07-29T15:42:56;100779.81;;;22.45;70.95
61506;BME280;47366;51.916;4.574;2023-07-29T15:45:22;100786.34;;;22.53;70.78
61506;BME280;47366;51.916;4.574;2023-07-29T15:47:47;100782.19;;;22.65;70.22
61506;BME280;47366;51.916;4.574;2023-07-29T15:50:12;100782.19;;;22.65;68.96
61506;BME280;47366;51.916;4.574;2023-07-29T15:52:38;100780.13;;;22.59;67.55
61506;BME280;47366;51.916;4.574;2023-07-29T15:55:08;100773.91;;;22.57;68.44
61506;BME280;47366;51.916;4.574;2023-07-29T15:57:33;100777.69;;;22.64;67.56
61506;BME280;47366;51.916;4.574;2023-07-29T15:59:59;100769.06;;;22.59;67.47
61506;BME280;47366;51.916;4.574;2023-07-29T16:02:25;100774.75;;;22.65;68.42
61506;BME280;47366;51.916;4.574;2023-07-29T16:04:50;100774.59;;;22.59;68.63
61506;BME280;47366;51.916;4.574;2023-07-29T16:07:16;100781.16;;;22.58;68.26
61506;BME280;47366;51.916;4.574;2023-07-29T16:09:41;100777.56;;;22.57;68.04
61506;BME280;47366;51.916;4.574;2023-07-29T16:12:07;100784.63;;;22.60;67.58
61506;BME280;47366;51.916;4.574;2023-07-29T16:14:32;100785.31;;;22.54;67.44
61506;BME280;47366;51.916;4.574;2023-07-29T16:16:58;100790.66;;;22.55;67.54
61506;BME280;47366;51.916;4.574;2023-07-29T16:19:25;100791.19;;;22.51;67.84
61506;BME280;47366;51.916;4.574;2023-07-29T16:21:52;100783.91;;;22.50;66.95
61506;BME280;47366;51.916;4.574;2023-07-29T16:24:17;100784.13;;;22.48;67.66
61506;BME280;47366;51.916;4.574;2023-07-29T16:26:43;100801.88;;;22.45;66.89
61506;BME280;47366;51.916;4.574;2023-07-29T16:29:09;100796.34;;;22.37;66.87
61506;BME280;47366;51.916;4.574;2023-07-29T16:31:34;100798.09;;;22.38;66.76
61506;BME280;47366;51.916;4.574;2023-07-29T16:34:00;100792.03;;;22.35;66.97
61506;BME280;47366;51.916;4.574;2023-07-29T16:36:26;100789.63;;;22.32;67.22
61506;BME280;47366;51.916;4.574;2023-07-29T16:38:51;100788.59;;;22.33;66.87
61506;BME280;47366;51.916;4.574;2023-07-29T16:41:16;100802.59;;;22.31;66.74
61506;BME280;47366;51.916;4.574;2023-07-29T16:43:42;100805.81;;;22.18;64.34
61506;BME280;47366;51.916;4.574;2023-07-29T16:46:07;100805.31;;;22.23;64.96
61506;BME280;47366;51.916;4.574;2023-07-29T16:48:33;100820.88;;;22.24;64.49
61506;BME280;47366;51.916;4.574;2023-07-29T16:50:58;100804.25;;;22.16;63.04
61506;BME280;47366;51.916;4.574;2023-07-29T16:53:25;100819.78;;;22.17;62.13
61506;BME280;47366;51.916;4.574;2023-07-29T16:55:51;100811.84;;;22.05;61.97
61506;BME280;47366;51.916;4.574;2023-07-29T16:58:16;100800.09;;;21.95;62.34
61506;BME280;47366;51.916;4.574;2023-07-29T17:00:41;100813.00;;;21.95;61.97
61506;BME280;47366;51.916;4.574;2023-07-29T17:03:07;100813.19;;;21.93;63.04
61506;BME280;47366;51.916;4.574;2023-07-29T17:05:33;100809.91;;;21.90;62.93
61506;BME280;47366;51.916;4.574;2023-07-29T17:07:58;100821.94;;;21.80;61.13
61506;BME280;47366;51.916;4.574;2023-07-29T17:10:24;100830.03;;;21.74;61.40
61506;BME280;47366;51.916;4.574;2023-07-29T17:12:49;100835.88;;;21.71;62.54
61506;BME280;47366;51.916;4.574;2023-07-29T17:15:15;100822.06;;;21.62;61.87
61506;BME280;47366;51.916;4.574;2023-07-29T17:17:40;100816.88;;;21.59;60.64
61506;BME280;47366;51.916;4.574;2023-07-29T17:20:06;100839.28;;;21.56;62.19
61506;BME280;47366;51.916;4.574;2023-07-29T17:22:31;100825.47;;;21.48;60.31
61506;BME280;47366;51.916;4.574;2023-07-29T17:24:59;100825.25;;;21.41;61.65
61506;BME280;47366;51.916;4.574;2023-07-29T17:27:24;100839.25;;;21.48;61.45
61506;BME280;47366;51.916;4.574;2023-07-29T17:29:50;100823.91;;;21.46;60.51
61506;BME280;47366;51.916;4.574;2023-07-29T17:32:15;100822.97;;;21.37;61.89
61506;BME280;47366;51.916;4.574;2023-07-29T17:34:40;100828.47;;;21.37;62.13
61506;BME280;47366;51.916;4.574;2023-07-29T17:37:06;100822.44;;;21.33;62.08
61506;BME280;47366;51.916;4.574;2023-07-29T17:39:31;100820.19;;;21.29;62.08
61506;BME280;47366;51.916;4.574;2023-07-29T17:41:57;100831.84;;;21.23;61.95
61506;BME280;47366;51.916;4.574;2023-07-29T17:44:22;100835.66;;;21.21;62.01
61506;BME280;47366;51.916;4.574;2023-07-29T17:46:47;100824.22;;;21.08;61.10
61506;BME280;47366;51.916;4.574;2023-07-29T17:49:13;100840.22;;;21.05;61.71
61506;BME280;47366;51.916;4.574;2023-07-29T17:51:38;100825.03;;;21.00;61.91
61506;BME280;47366;51.916;4.574;2023-07-29T17:54:04;100845.00;;;21.03;62.52
61506;BME280;47366;51.916;4.574;2023-07-29T17:56:29;100829.84;;;20.98;61.92
61506;BME280;47366;51.916;4.574;2023-07-29T17:58:54;100819.63;;;20.91;62.23
61506;BME280;47366;51.916;4.574;2023-07-29T18:01:20;100837.16;;;20.90;62.68
61506;BME280;47366;51.916;4.574;2023-07-29T18:03:45;100832.50;;;20.90;62.63
61506;BME280;47366;51.916;4.574;2023-07-29T18:06:15;100842.31;;;20.85;63.47
61506;BME280;47366;51.916;4.574;2023-07-29T18:08:40;100826.94;;;20.74;62.41
61506;BME280;47366;51.916;4.574;2023-07-29T18:11:06;100838.25;;;20.71;63.89
61506;BME280;47366;51.916;4.574;2023-07-29T18:13:32;100844.94;;;20.68;63.49
61506;BME280;47366;51.916;4.574;2023-07-29T18:15:59;100831.97;;;20.61;63.90
61506;BME280;47366;51.916;4.574;2023-07-29T18:18:25;100842.28;;;20.58;62.67
61506;BME280;47366;51.916;4.574;2023-07-29T18:20:51;100838.72;;;20.48;63.28
61506;BME280;47366;51.916;4.574;2023-07-29T18:23:16;100844.72;;;20.44;63.19
61506;BME280;47366;51.916;4.574;2023-07-29T18:25:42;100852.72;;;20.37;63.67
61506;BME280;47366;51.916;4.574;2023-07-29T18:28:08;100854.38;;;20.30;64.11
61506;BME280;47366;51.916;4.574;2023-07-29T18:30:34;100854.84;;;20.25;64.09
61506;BME280;47366;51.916;4.574;2023-07-29T18:33:00;100847.94;;;20.21;63.53
61506;BME280;47366;51.916;4.574;2023-07-29T18:35:28;100847.41;;;20.18;63.88
61506;BME280;47366;51.916;4.574;2023-07-29T18:37:54;100859.66;;;20.23;63.95
61506;BME280;47366;51.916;4.574;2023-07-29T18:40:23;100851.00;;;20.18;64.29
61506;BME280;47366;51.916;4.574;2023-07-29T18:42:49;100850.63;;;20.13;64.33
61506;BME280;47366;51.916;4.574;2023-07-29T18:45:15;100859.00;;;20.11;64.55
61506;BME280;47366;51.916;4.574;2023-07-29T18:47:40;100861.69;;;20.03;64.81
61506;BME280;47366;51.916;4.574;2023-07-29T18:50:06;100873.94;;;20.09;65.01
61506;BME280;47366;51.916;4.574;2023-07-29T18:52:31;100870.47;;;20.07;65.27
61506;BME280;47366;51.916;4.574;2023-07-29T18:54:57;100870.47;;;20.07;65.20
61506;BME280;47366;51.916;4.574;2023-07-29T18:57:24;100877.47;;;20.01;65.21
61506;BME280;47366;51.916;4.574;2023-07-29T18:59:49;100877.63;;;20.00;65.41
61506;BME280;47366;51.916;4.574;2023-07-29T19:02:15;100881.53;;;19.97;64.83
61506;BME280;47366;51.916;4.574;2023-07-29T19:04:40;100875.41;;;19.85;65.02
61506;BME280;47366;51.916;4.574;2023-07-29T19:07:09;100886.72;;;19.82;64.34
61506;BME280;47366;51.916;4.574;2023-07-29T19:09:34;100879.38;;;19.73;64.46
61506;BME280;47366;51.916;4.574;2023-07-29T19:11:59;100882.44;;;19.70;65.31
61506;BME280;47366;51.916;4.574;2023-07-29T19:14:25;100898.22;;;19.68;65.39
61506;BME280;47366;51.916;4.574;2023-07-29T19:16:50;100886.47;;;19.66;64.80
61506;BME280;47366;51.916;4.574;2023-07-29T19:19:16;100883.72;;;19.66;65.54
61506;BME280;47366;51.916;4.574;2023-07-29T19:21:41;100890.13;;;19.57;65.51
61506;BME280;47366;51.916;4.574;2023-07-29T19:24:06;100893.78;;;19.57;65.55
61506;BME280;47366;51.916;4.574;2023-07-29T19:26:32;100886.13;;;19.51;66.23
61506;BME280;47366;51.916;4.574;2023-07-29T19:28:57;100890.19;;;19.47;66.07
61506;BME280;47366;51.916;4.574;2023-07-29T19:31:23;100881.69;;;19.40;66.08
61506;BME280;47366;51.916;4.574;2023-07-29T19:33:49;100892.69;;;19.40;66.43
61506;BME280;47366;51.916;4.574;2023-07-29T19:36:17;100900.75;;;19.42;66.57
61506;BME280;47366;51.916;4.574;2023-07-29T19:38:42;100890.41;;;19.36;66.78
61506;BME280;47366;51.916;4.574;2023-07-29T19:41:08;100911.19;;;19.38;66.98
61506;BME280;47366;51.916;4.574;2023-07-29T19:43:33;100903.53;;;19.32;66.92
61506;BME280;47366;51.916;4.574;2023-07-29T19:45:59;100904.13;;;19.36;67.04
61506;BME280;47366;51.916;4.574;2023-07-29T19:48:28;100907.78;;;19.26;67.04
61506;BME280;47366;51.916;4.574;2023-07-29T19:50:53;100900.84;;;19.22;67.23
61506;BME280;47366;51.916;4.574;2023-07-29T19:53:19;100901.41;;;19.16;66.99
61506;BME280;47366;51.916;4.574;2023-07-29T19:55:45;100911.41;;;19.17;67.31
61506;BME280;47366;51.916;4.574;2023-07-29T19:58:16;100915.31;;;19.15;67.56
61506;BME280;47366;51.916;4.574;2023-07-29T20:00:42;100909.81;;;19.15;68.11
61506;BME280;47366;51.916;4.574;2023-07-29T20:03:07;100917.91;;;19.16;67.28
61506;BME280;47366;51.916;4.574;2023-07-29T20:05:33;100917.06;;;19.06;68.11
61506;BME280;47366;51.916;4.574;2023-07-29T20:07:58;100924.31;;;19.07;67.72
61506;BME280;47366;51.916;4.574;2023-07-29T20:10:23;100915.91;;;18.99;67.46
61506;BME280;47366;51.916;4.574;2023-07-29T20:12:49;100908.56;;;18.89;67.68
61506;BME280;47366;51.916;4.574;2023-07-29T20:15:14;100921.13;;;18.92;67.92
61506;BME280;47366;51.916;4.574;2023-07-29T20:17:40;100930.09;;;18.94;67.85
61506;BME280;47366;51.916;4.574;2023-07-29T20:20:08;100929.38;;;18.92;67.86
61506;BME280;47366;51.916;4.574;2023-07-29T20:22:34;100929.97;;;18.86;67.92
61506;BME280;47366;51.916;4.574;2023-07-29T20:24:59;100926.38;;;18.85;68.20
61506;BME280;47366;51.916;4.574;2023-07-29T20:27:24;100922.72;;;18.75;67.94
61506;BME280;47366;51.916;4.574;2023-07-29T20:29:50;100935.31;;;18.78;67.95
61506;BME280;47366;51.916;4.574;2023-07-29T20:32:15;100929.22;;;18.74;67.96
61506;BME280;47366;51.916;4.574;2023-07-29T20:34:40;100934.13;;;18.71;67.93
61506;BME280;47366;51.916;4.574;2023-07-29T20:37:06;100926.06;;;18.69;68.36
61506;BME280;47366;51.916;4.574;2023-07-29T20:39:31;100927.47;;;18.63;67.84
61506;BME280;47366;51.916;4.574;2023-07-29T20:41:56;100928.78;;;18.69;68.21
61506;BME280;47366;51.916;4.574;2023-07-29T20:44:22;100933.56;;;18.67;68.18
61506;BME280;47366;51.916;4.574;2023-07-29T20:46:47;100933.56;;;18.67;67.74
61506;BME280;47366;51.916;4.574;2023-07-29T20:49:15;100935.28;;;18.68;68.38
61506;BME280;47366;51.916;4.574;2023-07-29T20:51:40;100932.69;;;18.66;68.25
61506;BME280;47366;51.916;4.574;2023-07-29T20:54:06;100931.97;;;18.64;68.47
61506;BME280;47366;51.916;4.574;2023-07-29T20:56:31;100935.16;;;18.70;68.60
61506;BME280;47366;51.916;4.574;2023-07-29T20:58:56;100939.59;;;18.71;68.62
61506;BME280;47366;51.916;4.574;2023-07-29T21:01:22;100929.22;;;18.64;68.61
61506;BME280;47366;51.916;4.574;2023-07-29T21:03:47;100935.28;;;18.58;69.15
61506;BME280;47366;51.916;4.574;2023-07-29T21:06:13;100927.06;;;18.49;69.21
61506;BME280;47366;51.916;4.574;2023-07-29T21:08:38;100923.75;;;18.45;69.41
61506;BME280;47366;51.916;4.574;2023-07-29T21:11:03;100937.91;;;18.50;69.32
61506;BME280;47366;51.916;4.574;2023-07-29T21:13:29;100933.81;;;18.44;69.38
61506;BME280;47366;51.916;4.574;2023-07-29T21:15:56;100938.75;;;18.41;69.54
61506;BME280;47366;51.916;4.574;2023-07-29T21:18:23;100933.25;;;18.41;69.87
61506;BME280;47366;51.916;4.574;2023-07-29T21:20:50;100928.06;;;18.38;69.48
61506;BME280;47366;51.916;4.574;2023-07-29T21:23:16;100936.31;;;18.38;69.52